sensor_id;sensor_type;location;lat;lon;timestamp;P1;durP1;ratioP1;P2;durP2;ratioP2
75129;SDS011;63703;44.716;37.846;2023-05-10T00:01:25;5.75;;;2.08;;
75129;SDS011;63703;44.716;37.846;2023-05-10T00:03:51;7.57;;;3.40;;
75129;SDS011;63703;44.716;37.846;2023-05-10T00:06:17;8.27;;;2.17;;
75129;SDS011;63703;44.716;37.846;2023-05-10T00:08:43;7.25;;;1.63;;
75129;SDS011;63703;44.716;37.846;2023-05-10T00:11:09;5.35;;;2.05;;
75129;SDS011;63703;44.716;37.846;2023-05-10T00:13:35;5.68;;;2.13;;
75129;SDS011;63703;44.716;37.846;2023-05-10T00:16:01;5.30;;;2.08;;
75129;SDS011;63703;44.716;37.846;2023-05-10T00:18:27;6.90;;;2.75;;
75129;SDS011;63703;44.716;37.846;2023-05-10T00:20:53;5.50;;;1.70;;
75129;SDS011;63703;44.716;37.846;2023-05-10T00:23:19;6.15;;;1.70;;
75129;SDS011;63703;44.716;37.846;2023-05-10T00:25:45;8.50;;;2.10;;
75129;SDS011;63703;44.716;37.846;2023-05-10T00:28:11;9.48;;;2.17;;
75129;SDS011;63703;44.716;37.846;2023-05-10T00:30:37;6.25;;;1.85;;
75129;SDS011;63703;44.716;37.846;2023-05-10T00:33:02;5.70;;;2.17;;
75129;SDS011;63703;44.716;37.846;2023-05-10T00:35:28;5.53;;;2.17;;
75129;SDS011;63703;44.716;37.846;2023-05-10T00:37:54;6.40;;;3.55;;
75129;SDS011;63703;44.716;37.846;2023-05-10T00:40:20;5.88;;;3.50;;
75129;SDS011;63703;44.716;37.846;2023-05-10T00:42:51;4.55;;;1.50;;
75129;SDS011;63703;44.716;37.846;2023-05-10T00:45:17;4.38;;;2.00;;
75129;SDS011;63703;44.716;37.846;2023-05-10T00:47:44;5.47;;;2.28;;
75129;SDS011;63703;44.716;37.846;2023-05-10T00:50:10;5.03;;;2.33;;
75129;SDS011;63703;44.716;37.846;2023-05-10T00:52:36;4.03;;;1.92;;
75129;SDS011;63703;44.716;37.846;2023-05-10T00:55:02;4.35;;;1.77;;
75129;SDS011;63703;44.716;37.846;2023-05-10T00:57:30;3.60;;;1.00;;
75129;SDS011;63703;44.716;37.846;2023-05-10T00:59:56;4.35;;;2.92;;
75129;SDS011;63703;44.716;37.846;2023-05-10T01:02:24;4.18;;;2.13;;
75129;SDS011;63703;44.716;37.846;2023-05-10T01:04:50;4.55;;;1.73;;
75129;SDS011;63703;44.716;37.846;2023-05-10T01:07:17;4.82;;;1.30;;
75129;SDS011;63703;44.716;37.846;2023-05-10T01:09:43;4.63;;;2.03;;
75129;SDS011;63703;44.716;37.846;2023-05-10T01:12:10;2.92;;;1.35;;
75129;SDS011;63703;44.716;37.846;2023-05-10T01:14:36;2.47;;;1.27;;
75129;SDS011;63703;44.716;37.846;2023-05-10T01:17:03;1.60;;;0.63;;
75129;SDS011;63703;44.716;37.846;2023-05-10T01:19:31;2.33;;;0.85;;
75129;SDS011;63703;44.716;37.846;2023-05-10T01:25:11;2.97;;;0.73;;
75129;SDS011;63703;44.716;37.846;2023-05-10T01:36:47;2.28;;;1.30;;
75129;SDS011;63703;44.716;37.846;2023-05-10T01:39:02;1.63;;;1.02;;
75129;SDS011;63703;44.716;37.846;2023-05-10T01:41:52;3.47;;;1.85;;
75129;SDS011;63703;44.716;37.846;2023-05-10T01:44:29;5.18;;;2.10;;
75129;SDS011;63703;44.716;37.846;2023-05-10T01:47:58;2.17;;;0.60;;
75129;SDS011;63703;44.716;37.846;2023-05-10T01:50:01;2.55;;;1.15;;
75129;SDS011;63703;44.716;37.846;2023-05-10T01:52:32;2.65;;;1.33;;
75129;SDS011;63703;44.716;37.846;2023-05-10T01:55:02;1.65;;;0.95;;
75129;SDS011;63703;44.716;37.846;2023-05-10T01:57:32;1.70;;;1.20;;
75129;SDS011;63703;44.716;37.846;2023-05-10T02:00:04;1.27;;;1.00;;
75129;SDS011;63703;44.716;37.846;2023-05-10T02:02:40;2.65;;;0.80;;
75129;SDS011;63703;44.716;37.846;2023-05-10T02:05:10;2.97;;;1.58;;
75129;SDS011;63703;44.716;37.846;2023-05-10T02:07:38;2.95;;;2.47;;
75129;SDS011;63703;44.716;37.846;2023-05-10T02:10:06;2.40;;;0.75;;
75129;SDS011;63703;44.716;37.846;2023-05-10T02:12:39;1.50;;;0.65;;
75129;SDS011;63703;44.716;37.846;2023-05-10T02:15:07;2.80;;;1.60;;
75129;SDS011;63703;44.716;37.846;2023-05-10T02:17:34;1.73;;;1.17;;
75129;SDS011;63703;44.716;37.846;2023-05-10T02:20:02;2.10;;;1.15;;
75129;SDS011;63703;44.716;37.846;2023-05-10T02:22:30;1.48;;;0.75;;
75129;SDS011;63703;44.716;37.846;2023-05-10T02:24:57;2.13;;;0.93;;
75129;SDS011;63703;44.716;37.846;2023-05-10T02:27:27;1.17;;;0.47;;
75129;SDS011;63703;44.716;37.846;2023-05-10T02:29:54;1.48;;;1.10;;
75129;SDS011;63703;44.716;37.846;2023-05-10T02:32:21;2.35;;;0.80;;
75129;SDS011;63703;44.716;37.846;2023-05-10T02:34:49;1.70;;;1.23;;
75129;SDS011;63703;44.716;37.846;2023-05-10T02:37:21;1.13;;;0.88;;
75129;SDS011;63703;44.716;37.846;2023-05-10T02:39:48;1.75;;;1.65;;
75129;SDS011;63703;44.716;37.846;2023-05-10T02:42:16;1.10;;;0.60;;
75129;SDS011;63703;44.716;37.846;2023-05-10T02:44:50;1.23;;;0.88;;
75129;SDS011;63703;44.716;37.846;2023-05-10T02:47:18;1.13;;;0.65;;
75129;SDS011;63703;44.716;37.846;2023-05-10T02:49:44;1.17;;;0.65;;
75129;SDS011;63703;44.716;37.846;2023-05-10T02:52:10;1.52;;;1.13;;
75129;SDS011;63703;44.716;37.846;2023-05-10T02:54:46;2.53;;;0.73;;
75129;SDS011;63703;44.716;37.846;2023-05-10T02:57:16;1.25;;;0.95;;
75129;SDS011;63703;44.716;37.846;2023-05-10T02:59:45;1.42;;;1.05;;
75129;SDS011;63703;44.716;37.846;2023-05-10T03:02:12;1.30;;;0.93;;
75129;SDS011;63703;44.716;37.846;2023-05-10T03:04:38;1.45;;;1.15;;
75129;SDS011;63703;44.716;37.846;2023-05-10T03:07:04;1.55;;;1.08;;
75129;SDS011;63703;44.716;37.846;2023-05-10T03:09:31;1.65;;;1.33;;
75129;SDS011;63703;44.716;37.846;2023-05-10T03:22:47;1.38;;;0.77;;
75129;SDS011;63703;44.716;37.846;2023-05-10T03:25:12;1.13;;;0.50;;
75129;SDS011;63703;44.716;37.846;2023-05-10T03:27:42;1.75;;;0.65;;
75129;SDS011;63703;44.716;37.846;2023-05-10T03:30:10;2.40;;;1.92;;
75129;SDS011;63703;44.716;37.846;2023-05-10T03:32:38;1.58;;;0.75;;
75129;SDS011;63703;44.716;37.846;2023-05-10T03:35:07;2.28;;;1.48;;
75129;SDS011;63703;44.716;37.846;2023-05-10T03:37:34;1.67;;;1.55;;
75129;SDS011;63703;44.716;37.846;2023-05-10T03:40:01;1.50;;;1.05;;
75129;SDS011;63703;44.716;37.846;2023-05-10T03:42:31;1.55;;;1.42;;
75129;SDS011;63703;44.716;37.846;2023-05-10T03:44:57;1.40;;;1.00;;
75129;SDS011;63703;44.716;37.846;2023-05-10T03:47:23;1.73;;;1.30;;
75129;SDS011;63703;44.716;37.846;2023-05-10T03:49:49;2.00;;;0.60;;
75129;SDS011;63703;44.716;37.846;2023-05-10T03:52:16;1.70;;;1.40;;
75129;SDS011;63703;44.716;37.846;2023-05-10T03:54:43;2.28;;;0.50;;
75129;SDS011;63703;44.716;37.846;2023-05-10T03:57:09;2.13;;;1.42;;
75129;SDS011;63703;44.716;37.846;2023-05-10T03:59:35;3.05;;;1.13;;
75129;SDS011;63703;44.716;37.846;2023-05-10T04:02:01;1.92;;;1.30;;
75129;SDS011;63703;44.716;37.846;2023-05-10T04:04:28;2.35;;;0.85;;
75129;SDS011;63703;44.716;37.846;2023-05-10T04:06:54;2.22;;;1.15;;
75129;SDS011;63703;44.716;37.846;2023-05-10T04:09:20;1.60;;;1.10;;
75129;SDS011;63703;44.716;37.846;2023-05-10T04:11:46;3.22;;;2.17;;
75129;SDS011;63703;44.716;37.846;2023-05-10T04:14:12;1.75;;;1.08;;
75129;SDS011;63703;44.716;37.846;2023-05-10T04:16:38;1.95;;;1.40;;
75129;SDS011;63703;44.716;37.846;2023-05-10T04:19:04;3.55;;;0.98;;
75129;SDS011;63703;44.716;37.846;2023-05-10T04:21:30;1.27;;;0.65;;
75129;SDS011;63703;44.716;37.846;2023-05-10T04:23:56;2.05;;;0.63;;
75129;SDS011;63703;44.716;37.846;2023-05-10T04:26:22;1.88;;;1.50;;
75129;SDS011;63703;44.716;37.846;2023-05-10T04:28:47;3.05;;;0.60;;
75129;SDS011;63703;44.716;37.846;2023-05-10T04:31:13;1.55;;;0.60;;
75129;SDS011;63703;44.716;37.846;2023-05-10T04:33:39;2.25;;;0.80;;
75129;SDS011;63703;44.716;37.846;2023-05-10T04:36:05;2.33;;;0.77;;
75129;SDS011;63703;44.716;37.846;2023-05-10T04:38:31;1.92;;;1.20;;
75129;SDS011;63703;44.716;37.846;2023-05-10T04:41:04;1.85;;;0.85;;
75129;SDS011;63703;44.716;37.846;2023-05-10T04:43:34;2.30;;;1.15;;
75129;SDS011;63703;44.716;37.846;2023-05-10T04:46:01;3.92;;;1.27;;
75129;SDS011;63703;44.716;37.846;2023-05-10T04:48:27;2.33;;;1.20;;
75129;SDS011;63703;44.716;37.846;2023-05-10T04:50:53;2.80;;;1.38;;
75129;SDS011;63703;44.716;37.846;2023-05-10T04:53:19;1.98;;;0.80;;
75129;SDS011;63703;44.716;37.846;2023-05-10T04:55:45;2.53;;;1.98;;
75129;SDS011;63703;44.716;37.846;2023-05-10T04:58:12;3.10;;;1.23;;
75129;SDS011;63703;44.716;37.846;2023-05-10T05:00:38;1.85;;;1.25;;
75129;SDS011;63703;44.716;37.846;2023-05-10T05:03:03;2.95;;;0.93;;
75129;SDS011;63703;44.716;37.846;2023-05-10T05:05:30;3.42;;;2.25;;
75129;SDS011;63703;44.716;37.846;2023-05-10T05:07:56;3.95;;;0.60;;
75129;SDS011;63703;44.716;37.846;2023-05-10T05:10:22;2.75;;;1.60;;
75129;SDS011;63703;44.716;37.846;2023-05-10T05:12:48;1.67;;;0.90;;
75129;SDS011;63703;44.716;37.846;2023-05-10T05:15:14;1.63;;;1.02;;
75129;SDS011;63703;44.716;37.846;2023-05-10T05:17:41;1.55;;;0.63;;
75129;SDS011;63703;44.716;37.846;2023-05-10T05:20:08;1.77;;;0.95;;
75129;SDS011;63703;44.716;37.846;2023-05-10T05:22:35;3.00;;;1.67;;
75129;SDS011;63703;44.716;37.846;2023-05-10T05:25:02;1.67;;;0.40;;
75129;SDS011;63703;44.716;37.846;2023-05-10T05:27:28;2.00;;;1.10;;
75129;SDS011;63703;44.716;37.846;2023-05-10T05:29:55;2.03;;;0.65;;
75129;SDS011;63703;44.716;37.846;2023-05-10T05:32:22;1.75;;;1.38;;
75129;SDS011;63703;44.716;37.846;2023-05-10T05:34:48;1.88;;;1.08;;
75129;SDS011;63703;44.716;37.846;2023-05-10T05:37:15;1.75;;;0.80;;
75129;SDS011;63703;44.716;37.846;2023-05-10T05:39:42;3.05;;;0.70;;
75129;SDS011;63703;44.716;37.846;2023-05-10T05:42:08;3.22;;;1.13;;
75129;SDS011;63703;44.716;37.846;2023-05-10T05:44:35;2.40;;;1.65;;
75129;SDS011;63703;44.716;37.846;2023-05-10T05:47:01;2.75;;;2.28;;
75129;SDS011;63703;44.716;37.846;2023-05-10T05:49:27;1.85;;;0.88;;
75129;SDS011;63703;44.716;37.846;2023-05-10T05:51:53;2.15;;;1.83;;
75129;SDS011;63703;44.716;37.846;2023-05-10T05:54:19;2.20;;;1.52;;
75129;SDS011;63703;44.716;37.846;2023-05-10T05:56:45;2.03;;;1.83;;
75129;SDS011;63703;44.716;37.846;2023-05-10T05:59:10;2.45;;;1.75;;
75129;SDS011;63703;44.716;37.846;2023-05-10T06:01:37;2.55;;;0.73;;
75129;SDS011;63703;44.716;37.846;2023-05-10T06:04:03;1.92;;;1.40;;
75129;SDS011;63703;44.716;37.846;2023-05-10T06:06:28;2.35;;;0.98;;
75129;SDS011;63703;44.716;37.846;2023-05-10T06:08:54;1.65;;;0.60;;
75129;SDS011;63703;44.716;37.846;2023-05-10T06:11:20;2.60;;;1.48;;
75129;SDS011;63703;44.716;37.846;2023-05-10T06:13:46;2.80;;;2.22;;
75129;SDS011;63703;44.716;37.846;2023-05-10T06:16:13;1.55;;;1.10;;
75129;SDS011;63703;44.716;37.846;2023-05-10T06:18:39;1.58;;;0.75;;
75129;SDS011;63703;44.716;37.846;2023-05-10T06:21:05;1.85;;;0.47;;
75129;SDS011;63703;44.716;37.846;2023-05-10T06:23:31;2.80;;;1.23;;
75129;SDS011;63703;44.716;37.846;2023-05-10T06:25:57;1.80;;;0.88;;
75129;SDS011;63703;44.716;37.846;2023-05-10T06:28:23;2.35;;;1.42;;
75129;SDS011;63703;44.716;37.846;2023-05-10T06:30:49;1.25;;;0.60;;
75129;SDS011;63703;44.716;37.846;2023-05-10T06:33:15;3.00;;;0.93;;
75129;SDS011;63703;44.716;37.846;2023-05-10T06:35:42;2.33;;;0.63;;
75129;SDS011;63703;44.716;37.846;2023-05-10T06:38:08;2.13;;;0.80;;
75129;SDS011;63703;44.716;37.846;2023-05-10T06:40:34;1.73;;;0.70;;
75129;SDS011;63703;44.716;37.846;2023-05-10T06:43:01;1.40;;;1.02;;
75129;SDS011;63703;44.716;37.846;2023-05-10T06:45:27;1.80;;;1.35;;
75129;SDS011;63703;44.716;37.846;2023-05-10T06:47:52;3.30;;;0.47;;
75129;SDS011;63703;44.716;37.846;2023-05-10T06:50:18;2.38;;;1.52;;
75129;SDS011;63703;44.716;37.846;2023-05-10T06:52:44;2.20;;;0.57;;
75129;SDS011;63703;44.716;37.846;2023-05-10T06:55:10;1.27;;;0.35;;
75129;SDS011;63703;44.716;37.846;2023-05-10T06:57:36;2.00;;;0.93;;
75129;SDS011;63703;44.716;37.846;2023-05-10T07:00:02;2.92;;;0.85;;
75129;SDS011;63703;44.716;37.846;2023-05-10T07:02:32;1.40;;;0.32;;
75129;SDS011;63703;44.716;37.846;2023-05-10T07:04:58;1.48;;;0.52;;
75129;SDS011;63703;44.716;37.846;2023-05-10T07:07:24;2.28;;;0.57;;
75129;SDS011;63703;44.716;37.846;2023-05-10T07:09:49;2.40;;;1.50;;
75129;SDS011;63703;44.716;37.846;2023-05-10T07:12:16;2.35;;;1.08;;
75129;SDS011;63703;44.716;37.846;2023-05-10T07:14:42;1.35;;;0.82;;
75129;SDS011;63703;44.716;37.846;2023-05-10T07:17:09;1.13;;;0.60;;
75129;SDS011;63703;44.716;37.846;2023-05-10T07:19:35;1.65;;;0.57;;
75129;SDS011;63703;44.716;37.846;2023-05-10T07:22:01;2.13;;;0.38;;
75129;SDS011;63703;44.716;37.846;2023-05-10T07:24:27;1.40;;;0.75;;
75129;SDS011;63703;44.716;37.846;2023-05-10T07:26:53;3.75;;;0.57;;
75129;SDS011;63703;44.716;37.846;2023-05-10T07:29:19;1.70;;;0.40;;
75129;SDS011;63703;44.716;37.846;2023-05-10T07:31:45;2.78;;;0.70;;
75129;SDS011;63703;44.716;37.846;2023-05-10T07:34:11;2.60;;;0.93;;
75129;SDS011;63703;44.716;37.846;2023-05-10T07:36:36;1.77;;;0.50;;
75129;SDS011;63703;44.716;37.846;2023-05-10T07:39:02;4.38;;;2.33;;
75129;SDS011;63703;44.716;37.846;2023-05-10T07:41:28;1.48;;;0.30;;
75129;SDS011;63703;44.716;37.846;2023-05-10T07:43:54;1.90;;;0.98;;
75129;SDS011;63703;44.716;37.846;2023-05-10T07:46:20;1.85;;;0.70;;
75129;SDS011;63703;44.716;37.846;2023-05-10T07:48:46;1.27;;;0.73;;
75129;SDS011;63703;44.716;37.846;2023-05-10T07:51:12;1.85;;;0.40;;
75129;SDS011;63703;44.716;37.846;2023-05-10T07:53:38;2.67;;;1.00;;
75129;SDS011;63703;44.716;37.846;2023-05-10T07:56:20;3.03;;;0.80;;
75129;SDS011;63703;44.716;37.846;2023-05-10T07:58:58;2.08;;;0.60;;
75129;SDS011;63703;44.716;37.846;2023-05-10T08:01:25;1.65;;;0.30;;
75129;SDS011;63703;44.716;37.846;2023-05-10T08:03:52;1.55;;;0.88;;
75129;SDS011;63703;44.716;37.846;2023-05-10T08:06:19;1.25;;;0.52;;
75129;SDS011;63703;44.716;37.846;2023-05-10T08:08:46;1.25;;;0.40;;
75129;SDS011;63703;44.716;37.846;2023-05-10T08:11:17;1.40;;;0.65;;
75129;SDS011;63703;44.716;37.846;2023-05-10T08:13:47;2.28;;;0.75;;
75129;SDS011;63703;44.716;37.846;2023-05-10T08:16:14;1.65;;;0.77;;
75129;SDS011;63703;44.716;37.846;2023-05-10T08:18:42;1.38;;;0.52;;
75129;SDS011;63703;44.716;37.846;2023-05-10T08:21:10;3.38;;;0.32;;
75129;SDS011;63703;44.716;37.846;2023-05-10T08:23:39;1.70;;;0.52;;
75129;SDS011;63703;44.716;37.846;2023-05-10T08:26:06;1.25;;;0.40;;
75129;SDS011;63703;44.716;37.846;2023-05-10T08:28:32;3.33;;;0.73;;
75129;SDS011;63703;44.716;37.846;2023-05-10T08:30:57;1.77;;;1.42;;
75129;SDS011;63703;44.716;37.846;2023-05-10T08:33:23;2.13;;;0.70;;
75129;SDS011;63703;44.716;37.846;2023-05-10T08:35:50;1.35;;;0.50;;
75129;SDS011;63703;44.716;37.846;2023-05-10T08:38:16;1.25;;;0.50;;
75129;SDS011;63703;44.716;37.846;2023-05-10T08:40:42;2.47;;;0.38;;
75129;SDS011;63703;44.716;37.846;2023-05-10T08:43:10;1.98;;;0.80;;
75129;SDS011;63703;44.716;37.846;2023-05-10T08:45:41;1.73;;;0.95;;
75129;SDS011;63703;44.716;37.846;2023-05-10T08:48:09;2.17;;;0.68;;
75129;SDS011;63703;44.716;37.846;2023-05-10T08:50:37;1.98;;;0.98;;
75129;SDS011;63703;44.716;37.846;2023-05-10T09:10:09;1.67;;;0.60;;
75129;SDS011;63703;44.716;37.846;2023-05-10T09:12:36;1.50;;;0.40;;
75129;SDS011;63703;44.716;37.846;2023-05-10T09:15:03;3.00;;;0.28;;
75129;SDS011;63703;44.716;37.846;2023-05-10T09:17:31;2.65;;;1.05;;
75129;SDS011;63703;44.716;37.846;2023-05-10T09:20:00;1.50;;;0.55;;
75129;SDS011;63703;44.716;37.846;2023-05-10T09:22:28;1.40;;;0.77;;
75129;SDS011;63703;44.716;37.846;2023-05-10T09:25:13;1.42;;;0.50;;
75129;SDS011;63703;44.716;37.846;2023-05-10T09:27:40;1.35;;;0.43;;
75129;SDS011;63703;44.716;37.846;2023-05-10T09:30:10;1.98;;;0.47;;
75129;SDS011;63703;44.716;37.846;2023-05-10T09:32:44;1.98;;;0.68;;
75129;SDS011;63703;44.716;37.846;2023-05-10T09:35:19;1.25;;;0.45;;
75129;SDS011;63703;44.716;37.846;2023-05-10T09:37:49;2.03;;;1.08;;
75129;SDS011;63703;44.716;37.846;2023-05-10T09:40:17;1.48;;;0.52;;
75129;SDS011;63703;44.716;37.846;2023-05-10T09:42:51;2.60;;;1.45;;
75129;SDS011;63703;44.716;37.846;2023-05-10T09:45:25;3.42;;;0.52;;
75129;SDS011;63703;44.716;37.846;2023-05-10T09:47:53;3.22;;;1.20;;
75129;SDS011;63703;44.716;37.846;2023-05-10T09:50:19;2.67;;;0.57;;
75129;SDS011;63703;44.716;37.846;2023-05-10T09:52:50;1.98;;;0.55;;
75129;SDS011;63703;44.716;37.846;2023-05-10T09:55:18;2.90;;;0.98;;
75129;SDS011;63703;44.716;37.846;2023-05-10T09:57:47;1.60;;;0.55;;
75129;SDS011;63703;44.716;37.846;2023-05-10T10:00:17;2.33;;;0.57;;
75129;SDS011;63703;44.716;37.846;2023-05-10T10:03:05;2.85;;;0.95;;
75129;SDS011;63703;44.716;37.846;2023-05-10T10:05:31;3.53;;;0.73;;
75129;SDS011;63703;44.716;37.846;2023-05-10T10:07:58;2.50;;;0.95;;
75129;SDS011;63703;44.716;37.846;2023-05-10T10:10:26;2.47;;;1.73;;
75129;SDS011;63703;44.716;37.846;2023-05-10T10:12:52;4.18;;;0.50;;
75129;SDS011;63703;44.716;37.846;2023-05-10T10:15:22;3.08;;;0.77;;
75129;SDS011;63703;44.716;37.846;2023-05-10T10:17:50;3.03;;;1.40;;
75129;SDS011;63703;44.716;37.846;2023-05-10T10:20:17;2.40;;;0.98;;
75129;SDS011;63703;44.716;37.846;2023-05-10T10:22:44;3.05;;;0.73;;
75129;SDS011;63703;44.716;37.846;2023-05-10T10:25:11;3.08;;;0.90;;
75129;SDS011;63703;44.716;37.846;2023-05-10T10:35:33;5.03;;;1.48;;
75129;SDS011;63703;44.716;37.846;2023-05-10T10:38:00;2.10;;;1.00;;
75129;SDS011;63703;44.716;37.846;2023-05-10T10:40:27;2.15;;;0.60;;
75129;SDS011;63703;44.716;37.846;2023-05-10T10:42:57;2.10;;;0.88;;
75129;SDS011;63703;44.716;37.846;2023-05-10T10:45:24;3.05;;;0.77;;
75129;SDS011;63703;44.716;37.846;2023-05-10T10:50:45;2.65;;;0.73;;
75129;SDS011;63703;44.716;37.846;2023-05-10T10:53:12;5.57;;;1.13;;
75129;SDS011;63703;44.716;37.846;2023-05-10T10:55:47;2.90;;;0.55;;
75129;SDS011;63703;44.716;37.846;2023-05-10T10:58:29;2.05;;;0.93;;
75129;SDS011;63703;44.716;37.846;2023-05-10T11:01:15;1.40;;;0.47;;
75129;SDS011;63703;44.716;37.846;2023-05-10T11:03:56;3.50;;;0.93;;
75129;SDS011;63703;44.716;37.846;2023-05-10T11:06:40;1.90;;;0.63;;
75129;SDS011;63703;44.716;37.846;2023-05-10T11:09:08;2.72;;;0.73;;
75129;SDS011;63703;44.716;37.846;2023-05-10T11:11:35;2.53;;;1.25;;
75129;SDS011;63703;44.716;37.846;2023-05-10T11:14:13;1.85;;;0.32;;
75129;SDS011;63703;44.716;37.846;2023-05-10T11:29:06;2.13;;;0.73;;
75129;SDS011;63703;44.716;37.846;2023-05-10T11:31:32;1.98;;;0.95;;
75129;SDS011;63703;44.716;37.846;2023-05-10T11:33:59;2.17;;;1.30;;
75129;SDS011;63703;44.716;37.846;2023-05-10T11:36:29;4.97;;;1.20;;
75129;SDS011;63703;44.716;37.846;2023-05-10T11:39:01;2.00;;;0.88;;
75129;SDS011;63703;44.716;37.846;2023-05-10T11:41:29;3.88;;;0.98;;
75129;SDS011;63703;44.716;37.846;2023-05-10T11:43:56;3.92;;;0.98;;
75129;SDS011;63703;44.716;37.846;2023-05-10T11:46:23;3.22;;;0.82;;
75129;SDS011;63703;44.716;37.846;2023-05-10T11:48:52;2.58;;;0.68;;
75129;SDS011;63703;44.716;37.846;2023-05-10T11:51:23;2.53;;;0.65;;
75129;SDS011;63703;44.716;37.846;2023-05-10T11:53:53;2.42;;;0.60;;
75129;SDS011;63703;44.716;37.846;2023-05-10T11:56:20;3.10;;;1.50;;
75129;SDS011;63703;44.716;37.846;2023-05-10T11:58:52;2.80;;;1.40;;
75129;SDS011;63703;44.716;37.846;2023-05-10T12:01:20;2.55;;;1.17;;
75129;SDS011;63703;44.716;37.846;2023-05-10T12:03:46;2.08;;;0.75;;
75129;SDS011;63703;44.716;37.846;2023-05-10T12:06:13;2.20;;;0.95;;
75129;SDS011;63703;44.716;37.846;2023-05-10T12:08:43;1.98;;;0.93;;
75129;SDS011;63703;44.716;37.846;2023-05-10T12:11:11;3.22;;;1.20;;
75129;SDS011;63703;44.716;37.846;2023-05-10T12:13:43;3.08;;;1.35;;
75129;SDS011;63703;44.716;37.846;2023-05-10T12:16:19;4.55;;;0.82;;
75129;SDS011;63703;44.716;37.846;2023-05-10T12:18:52;5.03;;;2.47;;
